Mariner Of The Seas — C6FV9 — position and weather

sailwx.info

Track history (hours):
 
Tides and Currents Weather Stations Pressure Air Temp Water Temp Dewpoint Dewpoint Depression Visibility Wind Speed Wind Dir Waves Ship Positions

Mariner Of The Seas

Operator: Royal Caribbean Cruises Ltd

Last reported at 2017-Jul-22 15:14 UTC. Time now 2017-Jul-22 16:56 UTC.
Position N 31°06' E 123°48'.

Type: Passenger vessel. MMSI: 311493000.

Date/timePositionNaut miles runAvg speedWind from/ knotsBaromVisibWave heightAir tempDewpointWater temp
2017-Jul-22 15:14N 31°06' E 123°48'521.5
2017-Jul-22 15:00N 31°06' E 123°42'2120.8
2017-Jul-22 13:59N 31°06' E 123°17'1020.1
2017-Jul-22 13:30N 31°06' E 123°06'1020.1
2017-Jul-22 13:00N 31°06' E 122°54'1019.8
2017-Jul-22 12:30N 31°06' E 122°43'917.4
2017-Jul-22 12:00N 31°06' E 122°33'611.5
2017-Jul-22 11:30N 31°06' E 122°26'510.0
2017-Jul-22 11:00N 31°06' E 122°20'510.3
2017-Jul-22 10:30N 31°08' E 122°15'612.9
2017-Jul-22 10:01N 31°12' E 122°09'714.0
2017-Jul-22 09:30N 31°15' E 122°01'715.0
2017-Jul-22 09:00N 31°16' E 121°52'815.0
2017-Jul-22 08:30N 31°19' E 121°44'612.6
2017-Jul-22 08:00N 31°22' E 121°38'612.0
2017-Jul-22 07:30N 31°25' E 121°32'1 2.1
2017-Jul-22 06:57N 31°25' E 121°30'0 0.0
2017-Jul-22 06:27N 31°25' E 121°30'0 0.0
2017-Jul-22 06:00N 31°25' E 121°30'0 0.0
2017-Jul-22 05:27N 31°25' E 121°30'0 0.0
2017-Jul-22 05:00N 31°25' E 121°30'0 0.0
2017-Jul-22 04:30N 31°25' E 121°30'0 0.0
2017-Jul-22 04:00N 31°25' E 121°30'0 0.0
2017-Jul-22 03:30N 31°25' E 121°30'0 0.0
2017-Jul-22 03:00N 31°25' E 121°30'0 0.0
2017-Jul-22 02:27N 31°25' E 121°30'0 0.0
2017-Jul-22 02:00N 31°25' E 121°30'0 0.0
2017-Jul-22 01:27N 31°25' E 121°30'0 0.0
2017-Jul-22 00:57N 31°25' E 121°30'0 0.0
2017-Jul-22 00:30N 31°25' E 121°30'0 0.0
2017-Jul-21 23:57N 31°25' E 121°30'0 0.0
2017-Jul-21 23:27N 31°25' E 121°30'0 0.0
2017-Jul-21 22:57N 31°25' E 121°30'0 0.0
2017-Jul-21 22:27N 31°25' E 121°30'0 0.0
2017-Jul-21 22:00N 31°25' E 121°30'0 0.0
2017-Jul-21 21:30N 31°25' E 121°30'0 0.0
2017-Jul-21 20:57N 31°25' E 121°30'0 0.0
2017-Jul-21 20:30N 31°25' E 121°30'0 0.0
2017-Jul-21 19:57N 31°25' E 121°30'0 0.0
2017-Jul-21 19:27N 31°25' E 121°30'0 0.0
2017-Jul-21 18:57N 31°25' E 121°30'0 0.0
2017-Jul-21 18:27N 31°25' E 121°30'0 0.0
2017-Jul-21 17:57N 31°25' E 121°30'0 0.0
2017-Jul-21 17:28N 31°25' E 121°30'1 1.6
2017-Jul-21 17:00N 31°25' E 121°31'5 9.1
2017-Jul-21 16:30N 31°23' E 121°36'611.7
2017-Jul-21 16:01N 31°20' E 121°42'611.0
2017-Jul-21 15:30N 31°18' E 121°48'510.7
2017-Jul-21 15:01N 31°16' E 121°54'510.8
2017-Jul-21 14:30N 31°15' E 122°00'510.8
2017-Jul-21 14:01N 31°14' E 122°06'612.0
2017-Jul-21 13:30N 31°10' E 122°12'713.9
2017-Jul-21 13:00N 31°06' E 122°19'611.6
2017-Jul-21 12:28N 31°07' E 122°26'613.1
2017-Jul-21 12:00N 31°07' E 122°33'714.4
2017-Jul-21 11:30N 31°07' E 122°41'814.9
2017-Jul-21 11:00N 31°04' E 122°49'815.3
2017-Jul-21 10:30N 30°60' E 122°57'816.6
2017-Jul-21 10:01N 30°56' E 123°05'816.6
2017-Jul-21 09:30N 30°51' E 123°13'815.9
2017-Jul-21 09:00N 30°45' E 123°20'815.5
2017-Jul-21 08:30N 30°40' E 123°26'815.4
2017-Jul-21 08:00N 30°34' E 123°32'815.3
2017-Jul-21 07:30N 30°28' E 123°38'1414.7
2017-Jul-21 06:34N 30°18' E 123°49'114.8
2017-Jul-21 06:30N 30°18' E 123°50'714.5
2017-Jul-21 06:00N 30°12' E 123°56'714.3
2017-Jul-21 05:30N 30°07' E 124°01'814.4
2017-Jul-21 04:57N 30°01' E 124°08'614.4
2017-Jul-21 04:30N 29°57' E 124°13'1614.5
2017-Jul-21 03:25N 29°45' E 124°25'5 0.1
2017-Jul-18 23:26N 29°49' E 124°21'1913.5
2017-Jul-18 22:02N 30°03' E 124°06'012.6
2017-Jul-18 21:59N 30°03' E 124°06'3413.4
2017-Jul-18 19:25N 30°28' E 123°39'713.8
2017-Jul-18 18:56N 30°33' E 123°33'613.6
2017-Jul-18 18:29N 30°37' E 123°28'714.0
2017-Jul-18 17:58N 30°43' E 123°23'612.9
2017-Jul-18 17:29N 30°47' E 123°18'613.0
2017-Jul-18 17:00N 30°52' E 123°12'713.0
2017-Jul-18 16:30N 30°56' E 123°06'713.3
2017-Jul-18 15:59N 30°59' E 122°60'714.3
2017-Jul-18 15:29N 31°02' E 122°52'715.2
2017-Jul-18 15:00N 31°04' E 122°44'1414.5
2017-Jul-18 14:00N 31°06' E 122°27'612.5
2017-Jul-18 13:30N 31°06' E 122°20'714.7
2017-Jul-18 13:01N 31°10' E 122°12'714.6
2017-Jul-18 12:30N 31°14' E 122°05'714.4
2017-Jul-18 12:00N 31°15' E 121°57'713.0
2017-Jul-18 11:30N 31°17' E 121°50'611.0
2017-Jul-18 11:00N 31°19' E 121°44'3 6.5
2017-Jul-18 10:30N 31°21' E 121°40'3 5.3
2017-Jul-18 10:00N 31°22' E 121°38'4 8.1
2017-Jul-18 09:30N 31°24' E 121°33'3 5.7
2017-Jul-18 09:00N 31°25' E 121°30'0 0.0
2017-Jul-18 08:28N 31°25' E 121°30'0 0.0
2017-Jul-18 07:58N 31°25' E 121°30'0 0.0
2017-Jul-18 07:28N 31°25' E 121°30'0 0.0
2017-Jul-18 06:58N 31°25' E 121°30'0 0.0
2017-Jul-18 06:28N 31°25' E 121°30'0 0.0
2017-Jul-18 05:58N 31°25' E 121°30'0 0.0
2017-Jul-18 05:28N 31°25' E 121°30'0 0.0
2017-Jul-18 04:55N 31°25' E 121°30'0 0.0
2017-Jul-18 04:28N 31°25' E 121°30'0 0.0
2017-Jul-18 03:58N 31°25' E 121°30'0 0.0
2017-Jul-18 03:28N 31°25' E 121°30'0 0.0
2017-Jul-18 02:58N 31°25' E 121°30'0 0.0
2017-Jul-18 02:28N 31°25' E 121°30'0 0.0
2017-Jul-18 01:58N 31°25' E 121°30'0 0.0
2017-Jul-18 01:28N 31°25' E 121°30'0 0.0
2017-Jul-18 00:58N 31°25' E 121°30'0 0.0
2017-Jul-18 00:28N 31°25' E 121°30'0 0.0
2017-Jul-17 23:58N 31°25' E 121°30'0 0.0
2017-Jul-17 23:25N 31°25' E 121°30'0 0.2
2017-Jul-17 23:00N 31°25' E 121°30'3 6.6
2017-Jul-17 22:30N 31°24' E 121°34'5 9.5
2017-Jul-17 22:00N 31°21' E 121°39'611.5
2017-Jul-17 21:30N 31°19' E 121°45'611.1
2017-Jul-17 21:00N 31°17' E 121°51'510.7
2017-Jul-17 20:30N 31°15' E 121°57'713.2
2017-Jul-17 20:00N 31°14' E 122°04'5 9.9
2017-Jul-17 19:30N 31°12' E 122°09'510.0
2017-Jul-17 19:00N 31°09' E 122°14'5 9.1
2017-Jul-17 18:30N 31°06' E 122°18'4 7.0
2017-Jul-17 17:59N 31°06' E 122°23'4 7.6
2017-Jul-17 17:29N 31°07' E 122°27'  
2017-Jul-14 17:15N 31°13' E 123°37'914.6
2017-Jul-14 16:38N 31°12' E 123°27'514.8
2017-Jul-14 16:19N 31°11' E 123°21'514.6
2017-Jul-14 15:59N 31°10' E 123°16'714.6
2017-Jul-14 15:31N 31°09' E 123°07'714.5
2017-Jul-14 15:00N 31°08' E 122°59'714.7
2017-Jul-14 14:30N 31°07' E 122°51'714.3
2017-Jul-14 14:00N 31°06' E 122°42'510.0
2017-Jul-14 13:30N 31°05' E 122°37'611.5
2017-Jul-14 13:00N 31°05' E 122°30'510.7
2017-Jul-14 12:30N 31°06' E 122°24'611.5
2017-Jul-14 12:00N 31°07' E 122°17'612.8
2017-Jul-14 11:30N 31°10' E 122°11'713.6
2017-Jul-14 11:00N 31°14' E 122°04'713.8
2017-Jul-14 10:30N 31°15' E 121°56'714.0
2017-Jul-14 10:01N 31°17' E 121°49'713.0
2017-Jul-14 09:30N 31°20' E 121°42'611.7
2017-Jul-14 09:00N 31°23' E 121°36'5 9.5
2017-Jul-14 08:30N 31°25' E 121°31'0 0.5
2017-Jul-14 07:55N 31°25' E 121°30'0 0.0
2017-Jul-14 07:25N 31°25' E 121°30'0 0.0
2017-Jul-14 06:55N 31°25' E 121°30'0 0.0
2017-Jul-14 06:19N 31°25' E 121°30'0 0.0
2017-Jul-14 05:55N 31°25' E 121°30'0 0.0
2017-Jul-14 05:25N 31°25' E 121°30'0 0.0
2017-Jul-14 04:55N 31°25' E 121°30'0 0.0
2017-Jul-14 04:25N 31°25' E 121°30'0 0.0
2017-Jul-14 03:55N 31°25' E 121°30'0 0.0
2017-Jul-14 03:25N 31°25' E 121°30'0 0.0
2017-Jul-14 02:55N 31°25' E 121°30'0 0.0
2017-Jul-14 02:25N 31°25' E 121°30'0 0.0
2017-Jul-14 01:49N 31°25' E 121°30'0 0.0
2017-Jul-14 01:25N 31°25' E 121°30'0 0.0
2017-Jul-14 00:55N 31°25' E 121°30'0 0.0
2017-Jul-14 00:25N 31°25' E 121°30'0 0.0
2017-Jul-13 23:55N 31°25' E 121°30'0 0.0
2017-Jul-13 23:25N 31°25' E 121°30'0 0.0
2017-Jul-13 22:55N 31°25' E 121°30'0 0.0
2017-Jul-13 22:19N 31°25' E 121°30'0 0.0
2017-Jul-13 21:55N 31°25' E 121°30'0 0.0
2017-Jul-13 21:25N 31°25' E 121°30'0 0.0
2017-Jul-13 20:55N 31°25' E 121°30'0 0.0
2017-Jul-13 20:19N 31°25' E 121°30'0 0.0
2017-Jul-13 19:55N 31°25' E 121°30'0 0.0
2017-Jul-13 19:30N 31°25' E 121°30'1 2.2
2017-Jul-13 19:00N 31°24' E 121°32'611.1
2017-Jul-13 18:30N 31°22' E 121°37'510.8
2017-Jul-13 18:00N 31°19' E 121°43'611.5
2017-Jul-13 17:30N 31°17' E 121°49'611.7
2017-Jul-13 17:00N 31°16' E 121°56'611.9
2017-Jul-13 16:30N 31°14' E 122°03'611.7
2017-Jul-13 16:00N 31°12' E 122°09'510.7
2017-Jul-13 15:30N 31°09' E 122°14'4 8.7
2017-Jul-13 15:00N 31°06' E 122°18'510.4
2017-Jul-13 14:30N 31°07' E 122°24'612.9
2017-Jul-13 14:01N 31°07' E 122°32'714.5
2017-Jul-13 13:30N 31°07' E 122°40'913.6
2017-Jul-13 12:53N 31°11' E 122°49'713.5
2017-Jul-13 12:22N 31°14' E 122°56'613.4
2017-Jul-13 11:55N 31°16' E 123°03'613.5
2017-Jul-13 11:30N 31°19' E 123°09'713.7
2017-Jul-13 10:59N 31°21' E 123°16'714.5
2017-Jul-13 10:30N 31°24' E 123°24'815.0
2017-Jul-13 10:00N 31°27' E 123°32'2916.8
2017-Jul-13 08:15N 31°39' E 124°04'  
Track history (hours):
 
Tides and Currents Weather Stations Pressure Air Temp Water Temp Dewpoint Dewpoint Depression Visibility Wind Speed Wind Dir Waves Ship Positions

Mariner Of The Seas

Operator: Royal Caribbean Cruises Ltd

Last reported at 2017-Jul-22 15:14 UTC. Time now 2017-Jul-22 16:56 UTC.
Position N 31°06' E 123°48'.

Type: Passenger vessel. MMSI: 311493000.

Date/timePositionNaut miles runAvg speedWind from/ knotsBaromVisibWave heightAir tempDewpointWater temp
2017-Jul-22 15:14N 31°06' E 123°48'521.5
2017-Jul-22 15:00N 31°06' E 123°42'2120.8
2017-Jul-22 13:59N 31°06' E 123°17'1020.1
2017-Jul-22 13:30N 31°06' E 123°06'1020.1
2017-Jul-22 13:00N 31°06' E 122°54'1019.8
2017-Jul-22 12:30N 31°06' E 122°43'917.4
2017-Jul-22 12:00N 31°06' E 122°33'611.5
2017-Jul-22 11:30N 31°06' E 122°26'510.0
2017-Jul-22 11:00N 31°06' E 122°20'510.3
2017-Jul-22 10:30N 31°08' E 122°15'612.9
2017-Jul-22 10:01N 31°12' E 122°09'714.0
2017-Jul-22 09:30N 31°15' E 122°01'715.0
2017-Jul-22 09:00N 31°16' E 121°52'815.0
2017-Jul-22 08:30N 31°19' E 121°44'612.6
2017-Jul-22 08:00N 31°22' E 121°38'612.0
2017-Jul-22 07:30N 31°25' E 121°32'1 2.1
2017-Jul-22 06:57N 31°25' E 121°30'0 0.0
2017-Jul-22 06:27N 31°25' E 121°30'0 0.0
2017-Jul-22 06:00N 31°25' E 121°30'0 0.0
2017-Jul-22 05:27N 31°25' E 121°30'0 0.0
2017-Jul-22 05:00N 31°25' E 121°30'0 0.0
2017-Jul-22 04:30N 31°25' E 121°30'0 0.0
2017-Jul-22 04:00N 31°25' E 121°30'0 0.0
2017-Jul-22 03:30N 31°25' E 121°30'0 0.0
2017-Jul-22 03:00N 31°25' E 121°30'0 0.0
2017-Jul-22 02:27N 31°25' E 121°30'0 0.0
2017-Jul-22 02:00N 31°25' E 121°30'0 0.0
2017-Jul-22 01:27N 31°25' E 121°30'0 0.0
2017-Jul-22 00:57N 31°25' E 121°30'0 0.0
2017-Jul-22 00:30N 31°25' E 121°30'0 0.0
2017-Jul-21 23:57N 31°25' E 121°30'0 0.0
2017-Jul-21 23:27N 31°25' E 121°30'0 0.0
2017-Jul-21 22:57N 31°25' E 121°30'0 0.0
2017-Jul-21 22:27N 31°25' E 121°30'0 0.0
2017-Jul-21 22:00N 31°25' E 121°30'0 0.0
2017-Jul-21 21:30N 31°25' E 121°30'0 0.0
2017-Jul-21 20:57N 31°25' E 121°30'0 0.0
2017-Jul-21 20:30N 31°25' E 121°30'0 0.0
2017-Jul-21 19:57N 31°25' E 121°30'0 0.0
2017-Jul-21 19:27N 31°25' E 121°30'0 0.0
2017-Jul-21 18:57N 31°25' E 121°30'0 0.0
2017-Jul-21 18:27N 31°25' E 121°30'0 0.0
2017-Jul-21 17:57N 31°25' E 121°30'0 0.0
2017-Jul-21 17:28N 31°25' E 121°30'1 1.6
2017-Jul-21 17:00N 31°25' E 121°31'5 9.1
2017-Jul-21 16:30N 31°23' E 121°36'611.7
2017-Jul-21 16:01N 31°20' E 121°42'611.0
2017-Jul-21 15:30N 31°18' E 121°48'510.7
2017-Jul-21 15:01N 31°16' E 121°54'510.8
2017-Jul-21 14:30N 31°15' E 122°00'510.8
2017-Jul-21 14:01N 31°14' E 122°06'612.0
2017-Jul-21 13:30N 31°10' E 122°12'713.9
2017-Jul-21 13:00N 31°06' E 122°19'611.6
2017-Jul-21 12:28N 31°07' E 122°26'613.1
2017-Jul-21 12:00N 31°07' E 122°33'714.4
2017-Jul-21 11:30N 31°07' E 122°41'814.9
2017-Jul-21 11:00N 31°04' E 122°49'815.3
2017-Jul-21 10:30N 30°60' E 122°57'816.6
2017-Jul-21 10:01N 30°56' E 123°05'816.6
2017-Jul-21 09:30N 30°51' E 123°13'815.9
2017-Jul-21 09:00N 30°45' E 123°20'815.5
2017-Jul-21 08:30N 30°40' E 123°26'815.4
2017-Jul-21 08:00N 30°34' E 123°32'815.3
2017-Jul-21 07:30N 30°28' E 123°38'1414.7
2017-Jul-21 06:34N 30°18' E 123°49'114.8
2017-Jul-21 06:30N 30°18' E 123°50'714.5
2017-Jul-21 06:00N 30°12' E 123°56'714.3
2017-Jul-21 05:30N 30°07' E 124°01'814.4
2017-Jul-21 04:57N 30°01' E 124°08'614.4
2017-Jul-21 04:30N 29°57' E 124°13'1614.5
2017-Jul-21 03:25N 29°45' E 124°25'5 0.1
2017-Jul-18 23:26N 29°49' E 124°21'1913.5
2017-Jul-18 22:02N 30°03' E 124°06'012.6
2017-Jul-18 21:59N 30°03' E 124°06'3413.4
2017-Jul-18 19:25N 30°28' E 123°39'713.8
2017-Jul-18 18:56N 30°33' E 123°33'613.6
2017-Jul-18 18:29N 30°37' E 123°28'714.0
2017-Jul-18 17:58N 30°43' E 123°23'612.9
2017-Jul-18 17:29N 30°47' E 123°18'613.0
2017-Jul-18 17:00N 30°52' E 123°12'713.0
2017-Jul-18 16:30N 30°56' E 123°06'713.3
2017-Jul-18 15:59N 30°59' E 122°60'714.3
2017-Jul-18 15:29N 31°02' E 122°52'715.2
2017-Jul-18 15:00N 31°04' E 122°44'1414.5
2017-Jul-18 14:00N 31°06' E 122°27'612.5
2017-Jul-18 13:30N 31°06' E 122°20'714.7
2017-Jul-18 13:01N 31°10' E 122°12'714.6
2017-Jul-18 12:30N 31°14' E 122°05'714.4
2017-Jul-18 12:00N 31°15' E 121°57'713.0
2017-Jul-18 11:30N 31°17' E 121°50'611.0
2017-Jul-18 11:00N 31°19' E 121°44'3 6.5
2017-Jul-18 10:30N 31°21' E 121°40'3 5.3
2017-Jul-18 10:00N 31°22' E 121°38'4 8.1
2017-Jul-18 09:30N 31°24' E 121°33'3 5.7
2017-Jul-18 09:00N 31°25' E 121°30'0 0.0
2017-Jul-18 08:28N 31°25' E 121°30'0 0.0
2017-Jul-18 07:58N 31°25' E 121°30'0 0.0
2017-Jul-18 07:28N 31°25' E 121°30'0 0.0
2017-Jul-18 06:58N 31°25' E 121°30'0 0.0
2017-Jul-18 06:28N 31°25' E 121°30'0 0.0
2017-Jul-18 05:58N 31°25' E 121°30'0 0.0
2017-Jul-18 05:28N 31°25' E 121°30'0 0.0
2017-Jul-18 04:55N 31°25' E 121°30'0 0.0
2017-Jul-18 04:28N 31°25' E 121°30'0 0.0
2017-Jul-18 03:58N 31°25' E 121°30'0 0.0
2017-Jul-18 03:28N 31°25' E 121°30'0 0.0
2017-Jul-18 02:58N 31°25' E 121°30'0 0.0
2017-Jul-18 02:28N 31°25' E 121°30'0 0.0
2017-Jul-18 01:58N 31°25' E 121°30'0 0.0
2017-Jul-18 01:28N 31°25' E 121°30'0 0.0
2017-Jul-18 00:58N 31°25' E 121°30'0 0.0
2017-Jul-18 00:28N 31°25' E 121°30'0 0.0
2017-Jul-17 23:58N 31°25' E 121°30'0 0.0
2017-Jul-17 23:25N 31°25' E 121°30'0 0.2
2017-Jul-17 23:00N 31°25' E 121°30'3 6.6
2017-Jul-17 22:30N 31°24' E 121°34'5 9.5
2017-Jul-17 22:00N 31°21' E 121°39'611.5
2017-Jul-17 21:30N 31°19' E 121°45'611.1
2017-Jul-17 21:00N 31°17' E 121°51'510.7
2017-Jul-17 20:30N 31°15' E 121°57'713.2
2017-Jul-17 20:00N 31°14' E 122°04'5 9.9
2017-Jul-17 19:30N 31°12' E 122°09'510.0
2017-Jul-17 19:00N 31°09' E 122°14'5 9.1
2017-Jul-17 18:30N 31°06' E 122°18'4 7.0
2017-Jul-17 17:59N 31°06' E 122°23'4 7.6
2017-Jul-17 17:29N 31°07' E 122°27'  
2017-Jul-14 17:15N 31°13' E 123°37'914.6
2017-Jul-14 16:38N 31°12' E 123°27'514.8
2017-Jul-14 16:19N 31°11' E 123°21'514.6
2017-Jul-14 15:59N 31°10' E 123°16'714.6
2017-Jul-14 15:31N 31°09' E 123°07'714.5
2017-Jul-14 15:00N 31°08' E 122°59'714.7
2017-Jul-14 14:30N 31°07' E 122°51'714.3
2017-Jul-14 14:00N 31°06' E 122°42'510.0
2017-Jul-14 13:30N 31°05' E 122°37'611.5
2017-Jul-14 13:00N 31°05' E 122°30'510.7
2017-Jul-14 12:30N 31°06' E 122°24'611.5
2017-Jul-14 12:00N 31°07' E 122°17'612.8
2017-Jul-14 11:30N 31°10' E 122°11'713.6
2017-Jul-14 11:00N 31°14' E 122°04'713.8
2017-Jul-14 10:30N 31°15' E 121°56'714.0
2017-Jul-14 10:01N 31°17' E 121°49'713.0
2017-Jul-14 09:30N 31°20' E 121°42'611.7
2017-Jul-14 09:00N 31°23' E 121°36'5 9.5
2017-Jul-14 08:30N 31°25' E 121°31'0 0.5
2017-Jul-14 07:55N 31°25' E 121°30'0 0.0
2017-Jul-14 07:25N 31°25' E 121°30'0 0.0
2017-Jul-14 06:55N 31°25' E 121°30'0 0.0
2017-Jul-14 06:19N 31°25' E 121°30'0 0.0
2017-Jul-14 05:55N 31°25' E 121°30'0 0.0
2017-Jul-14 05:25N 31°25' E 121°30'0 0.0
2017-Jul-14 04:55N 31°25' E 121°30'0 0.0
2017-Jul-14 04:25N 31°25' E 121°30'0 0.0
2017-Jul-14 03:55N 31°25' E 121°30'0 0.0
2017-Jul-14 03:25N 31°25' E 121°30'0 0.0
2017-Jul-14 02:55N 31°25' E 121°30'0 0.0
2017-Jul-14 02:25N 31°25' E 121°30'0 0.0
2017-Jul-14 01:49N 31°25' E 121°30'0 0.0
2017-Jul-14 01:25N 31°25' E 121°30'0 0.0
2017-Jul-14 00:55N 31°25' E 121°30'0 0.0
2017-Jul-14 00:25N 31°25' E 121°30'0 0.0
2017-Jul-13 23:55N 31°25' E 121°30'0 0.0
2017-Jul-13 23:25N 31°25' E 121°30'0 0.0
2017-Jul-13 22:55N 31°25' E 121°30'0 0.0
2017-Jul-13 22:19N 31°25' E 121°30'0 0.0
2017-Jul-13 21:55N 31°25' E 121°30'0 0.0
2017-Jul-13 21:25N 31°25' E 121°30'0 0.0
2017-Jul-13 20:55N 31°25' E 121°30'0 0.0
2017-Jul-13 20:19N 31°25' E 121°30'0 0.0
2017-Jul-13 19:55N 31°25' E 121°30'0 0.0
2017-Jul-13 19:30N 31°25' E 121°30'1 2.2
2017-Jul-13 19:00N 31°24' E 121°32'611.1
2017-Jul-13 18:30N 31°22' E 121°37'510.8
2017-Jul-13 18:00N 31°19' E 121°43'611.5
2017-Jul-13 17:30N 31°17' E 121°49'611.7
2017-Jul-13 17:00N 31°16' E 121°56'611.9
2017-Jul-13 16:30N 31°14' E 122°03'611.7
2017-Jul-13 16:00N 31°12' E 122°09'510.7
2017-Jul-13 15:30N 31°09' E 122°14'4 8.7
2017-Jul-13 15:00N 31°06' E 122°18'510.4
2017-Jul-13 14:30N 31°07' E 122°24'612.9
2017-Jul-13 14:01N 31°07' E 122°32'714.5
2017-Jul-13 13:30N 31°07' E 122°40'913.6
2017-Jul-13 12:53N 31°11' E 122°49'713.5
2017-Jul-13 12:22N 31°14' E 122°56'613.4
2017-Jul-13 11:55N 31°16' E 123°03'613.5
2017-Jul-13 11:30N 31°19' E 123°09'713.7
2017-Jul-13 10:59N 31°21' E 123°16'714.5
2017-Jul-13 10:30N 31°24' E 123°24'815.0
2017-Jul-13 10:00N 31°27' E 123°32'2916.8
2017-Jul-13 08:15N 31°39' E 124°04'  

Dump ship's entire track history